sensor_id;sensor_type;location;lat;lon;timestamp;temperature;humidity
26575;DHT22;67165;50.256;10.978;2023-03-13T00:00:16;6.20;98.00
26575;DHT22;67165;50.256;10.978;2023-03-13T00:02:42;6.20;98.00
26575;DHT22;67165;50.256;10.978;2023-03-13T00:05:10;6.20;98.00
26575;DHT22;67165;50.256;10.978;2023-03-13T00:07:36;6.20;98.00
26575;DHT22;67165;50.256;10.978;2023-03-13T00:10:02;6.30;98.00
26575;DHT22;67165;50.256;10.978;2023-03-13T00:12:28;6.30;98.00
26575;DHT22;67165;50.256;10.978;2023-03-13T00:14:54;6.30;98.00
26575;DHT22;67165;50.256;10.978;2023-03-13T00:17:19;6.40;98.00
26575;DHT22;67165;50.256;10.978;2023-03-13T00:19:45;6.40;98.00
26575;DHT22;67165;50.256;10.978;2023-03-13T00:22:10;6.40;98.00
26575;DHT22;67165;50.256;10.978;2023-03-13T00:24:36;6.50;98.00
26575;DHT22;67165;50.256;10.978;2023-03-13T00:27:02;6.40;98.00
26575;DHT22;67165;50.256;10.978;2023-03-13T00:29:31;6.40;98.00
26575;DHT22;67165;50.256;10.978;2023-03-13T00:31:56;6.40;98.00
26575;DHT22;67165;50.256;10.978;2023-03-13T00:34:22;6.40;98.00
26575;DHT22;67165;50.256;10.978;2023-03-13T00:36:51;6.40;98.00
26575;DHT22;67165;50.256;10.978;2023-03-13T00:39:16;6.40;98.00
26575;DHT22;67165;50.256;10.978;2023-03-13T00:41:42;6.40;98.00
26575;DHT22;67165;50.256;10.978;2023-03-13T00:44:09;6.50;98.00
26575;DHT22;67165;50.256;10.978;2023-03-13T00:46:35;6.50;98.00
26575;DHT22;67165;50.256;10.978;2023-03-13T00:49:00;6.60;98.00
26575;DHT22;67165;50.256;10.978;2023-03-13T00:51:26;6.60;98.00
26575;DHT22;67165;50.256;10.978;2023-03-13T00:53:54;6.70;98.00
26575;DHT22;67165;50.256;10.978;2023-03-13T00:56:20;6.70;98.00
26575;DHT22;67165;50.256;10.978;2023-03-13T00:58:47;6.70;98.00
26575;DHT22;67165;50.256;10.978;2023-03-13T01:03:50;6.60;98.00
26575;DHT22;67165;50.256;10.978;2023-03-13T01:06:18;6.60;98.00
26575;DHT22;67165;50.256;10.978;2023-03-13T01:08:45;6.60;98.00
26575;DHT22;67165;50.256;10.978;2023-03-13T01:11:16;6.60;98.00
26575;DHT22;67165;50.256;10.978;2023-03-13T01:13:42;6.70;98.00
26575;DHT22;67165;50.256;10.978;2023-03-13T01:18:36;6.80;98.00
26575;DHT22;67165;50.256;10.978;2023-03-13T01:21:03;6.70;98.00
26575;DHT22;67165;50.256;10.978;2023-03-13T01:23:29;6.70;98.00
26575;DHT22;67165;50.256;10.978;2023-03-13T01:25:55;6.80;98.00
26575;DHT22;67165;50.256;10.978;2023-03-13T01:28:23;6.80;98.00
26575;DHT22;67165;50.256;10.978;2023-03-13T01:30:49;6.80;98.00
26575;DHT22;67165;50.256;10.978;2023-03-13T01:33:15;6.80;98.00
26575;DHT22;67165;50.256;10.978;2023-03-13T01:35:40;6.70;98.00
26575;DHT22;67165;50.256;10.978;2023-03-13T01:38:06;6.80;98.00
26575;DHT22;67165;50.256;10.978;2023-03-13T01:40:45;6.80;98.00
26575;DHT22;67165;50.256;10.978;2023-03-13T01:43:20;6.80;98.00
26575;DHT22;67165;50.256;10.978;2023-03-13T01:48:15;6.90;98.00
26575;DHT22;67165;50.256;10.978;2023-03-13T01:50:41;6.90;98.00
26575;DHT22;67165;50.256;10.978;2023-03-13T01:53:07;6.90;98.00
26575;DHT22;67165;50.256;10.978;2023-03-13T01:55:33;6.80;98.00
26575;DHT22;67165;50.256;10.978;2023-03-13T01:57:59;6.80;98.00
26575;DHT22;67165;50.256;10.978;2023-03-13T02:00:32;6.80;98.00
26575;DHT22;67165;50.256;10.978;2023-03-13T02:03:05;6.80;98.00
26575;DHT22;67165;50.256;10.978;2023-03-13T02:05:32;6.70;98.00
26575;DHT22;67165;50.256;10.978;2023-03-13T02:10:28;6.60;98.00
26575;DHT22;67165;50.256;10.978;2023-03-13T02:12:56;6.70;98.00
26575;DHT22;67165;50.256;10.978;2023-03-13T02:15:23;6.60;98.00
26575;DHT22;67165;50.256;10.978;2023-03-13T02:17:50;6.70;98.00
26575;DHT22;67165;50.256;10.978;2023-03-13T02:20:19;6.70;98.00
26575;DHT22;67165;50.256;10.978;2023-03-13T02:25:51;6.70;98.00
26575;DHT22;67165;50.256;10.978;2023-03-13T02:28:23;6.70;98.00
26575;DHT22;67165;50.256;10.978;2023-03-13T02:30:51;6.70;98.00
26575;DHT22;67165;50.256;10.978;2023-03-13T02:33:20;6.70;98.00
26575;DHT22;67165;50.256;10.978;2023-03-13T02:35:47;6.60;98.00
26575;DHT22;67165;50.256;10.978;2023-03-13T02:38:19;6.60;98.00
26575;DHT22;67165;50.256;10.978;2023-03-13T02:40:47;6.60;98.00
26575;DHT22;67165;50.256;10.978;2023-03-13T02:43:35;6.50;98.00
26575;DHT22;67165;50.256;10.978;2023-03-13T02:46:19;6.50;98.00
26575;DHT22;67165;50.256;10.978;2023-03-13T02:48:46;6.50;98.00
26575;DHT22;67165;50.256;10.978;2023-03-13T02:53:59;6.50;98.00
26575;DHT22;67165;50.256;10.978;2023-03-13T02:56:27;6.50;98.00
26575;DHT22;67165;50.256;10.978;2023-03-13T02:58:55;6.50;98.00
26575;DHT22;67165;50.256;10.978;2023-03-13T03:01:21;6.60;98.00
26575;DHT22;67165;50.256;10.978;2023-03-13T03:03:46;6.60;98.00
26575;DHT22;67165;50.256;10.978;2023-03-13T03:06:13;6.60;98.00
26575;DHT22;67165;50.256;10.978;2023-03-13T03:08:39;6.60;98.00
26575;DHT22;67165;50.256;10.978;2023-03-13T03:11:06;6.60;98.00
26575;DHT22;67165;50.256;10.978;2023-03-13T03:13:32;6.60;98.00
26575;DHT22;67165;50.256;10.978;2023-03-13T03:15:58;6.60;98.00
26575;DHT22;67165;50.256;10.978;2023-03-13T03:18:23;6.50;98.00
26575;DHT22;67165;50.256;10.978;2023-03-13T03:20:49;6.60;98.00
26575;DHT22;67165;50.256;10.978;2023-03-13T03:23:15;6.60;98.00
26575;DHT22;67165;50.256;10.978;2023-03-13T03:25:40;6.60;98.00
26575;DHT22;67165;50.256;10.978;2023-03-13T03:28:06;6.60;98.00
26575;DHT22;67165;50.256;10.978;2023-03-13T03:30:32;6.60;98.00
26575;DHT22;67165;50.256;10.978;2023-03-13T03:32:57;6.60;98.00
26575;DHT22;67165;50.256;10.978;2023-03-13T03:35:23;6.60;98.00
26575;DHT22;67165;50.256;10.978;2023-03-13T03:37:49;6.60;98.00
26575;DHT22;67165;50.256;10.978;2023-03-13T03:40:14;6.70;98.00
26575;DHT22;67165;50.256;10.978;2023-03-13T03:42:40;6.80;98.00
26575;DHT22;67165;50.256;10.978;2023-03-13T03:45:06;6.80;98.00
26575;DHT22;67165;50.256;10.978;2023-03-13T03:47:32;6.80;98.00
26575;DHT22;67165;50.256;10.978;2023-03-13T03:49:57;6.80;98.00
26575;DHT22;67165;50.256;10.978;2023-03-13T03:52:23;6.90;98.00
26575;DHT22;67165;50.256;10.978;2023-03-13T03:54:48;6.90;98.00
26575;DHT22;67165;50.256;10.978;2023-03-13T03:57:14;6.90;98.00
26575;DHT22;67165;50.256;10.978;2023-03-13T03:59:39;6.90;98.00
26575;DHT22;67165;50.256;10.978;2023-03-13T04:02:05;6.90;98.00
26575;DHT22;67165;50.256;10.978;2023-03-13T04:04:31;6.90;98.00
26575;DHT22;67165;50.256;10.978;2023-03-13T04:06:56;6.90;98.00
26575;DHT22;67165;50.256;10.978;2023-03-13T04:09:22;6.90;98.00
26575;DHT22;67165;50.256;10.978;2023-03-13T04:11:48;7.00;98.00
26575;DHT22;67165;50.256;10.978;2023-03-13T04:14:13;7.00;98.00
26575;DHT22;67165;50.256;10.978;2023-03-13T04:16:39;7.10;98.00
26575;DHT22;67165;50.256;10.978;2023-03-13T04:19:04;7.10;98.00
26575;DHT22;67165;50.256;10.978;2023-03-13T04:21:31;7.10;98.00
26575;DHT22;67165;50.256;10.978;2023-03-13T04:23:57;7.10;98.00
26575;DHT22;67165;50.256;10.978;2023-03-13T04:26:23;7.00;98.00
26575;DHT22;67165;50.256;10.978;2023-03-13T04:28:48;7.10;98.00
26575;DHT22;67165;50.256;10.978;2023-03-13T04:31:14;7.00;98.00
26575;DHT22;67165;50.256;10.978;2023-03-13T04:33:39;7.00;98.00
26575;DHT22;67165;50.256;10.978;2023-03-13T04:36:05;7.10;98.00
26575;DHT22;67165;50.256;10.978;2023-03-13T04:38:31;7.10;98.00
26575;DHT22;67165;50.256;10.978;2023-03-13T04:40:56;7.10;98.00
26575;DHT22;67165;50.256;10.978;2023-03-13T04:43:22;7.10;98.00
26575;DHT22;67165;50.256;10.978;2023-03-13T04:45:51;7.10;98.00
26575;DHT22;67165;50.256;10.978;2023-03-13T04:48:19;7.10;98.00
26575;DHT22;67165;50.256;10.978;2023-03-13T04:50:46;7.10;98.00
26575;DHT22;67165;50.256;10.978;2023-03-13T04:53:13;7.20;98.00
26575;DHT22;67165;50.256;10.978;2023-03-13T04:55:39;7.20;98.00
26575;DHT22;67165;50.256;10.978;2023-03-13T04:58:04;7.20;98.00
26575;DHT22;67165;50.256;10.978;2023-03-13T05:00:30;7.10;98.00
26575;DHT22;67165;50.256;10.978;2023-03-13T05:02:56;7.20;98.00
26575;DHT22;67165;50.256;10.978;2023-03-13T05:05:21;7.20;98.00
26575;DHT22;67165;50.256;10.978;2023-03-13T05:07:47;7.20;98.00
26575;DHT22;67165;50.256;10.978;2023-03-13T05:10:12;7.20;98.00
26575;DHT22;67165;50.256;10.978;2023-03-13T05:12:38;7.10;98.00
26575;DHT22;67165;50.256;10.978;2023-03-13T05:15:04;7.10;98.00
26575;DHT22;67165;50.256;10.978;2023-03-13T05:17:29;7.20;98.00
26575;DHT22;67165;50.256;10.978;2023-03-13T05:19:55;7.30;98.00
26575;DHT22;67165;50.256;10.978;2023-03-13T05:22:21;7.30;98.00
26575;DHT22;67165;50.256;10.978;2023-03-13T05:24:46;7.30;98.00
26575;DHT22;67165;50.256;10.978;2023-03-13T05:27:12;7.20;98.00
26575;DHT22;67165;50.256;10.978;2023-03-13T05:29:37;7.10;98.00
26575;DHT22;67165;50.256;10.978;2023-03-13T05:32:04;7.10;98.00
26575;DHT22;67165;50.256;10.978;2023-03-13T05:34:29;7.10;98.00
26575;DHT22;67165;50.256;10.978;2023-03-13T05:36:55;7.10;98.00
26575;DHT22;67165;50.256;10.978;2023-03-13T05:39:21;7.10;98.00
26575;DHT22;67165;50.256;10.978;2023-03-13T05:41:46;7.00;98.00
26575;DHT22;67165;50.256;10.978;2023-03-13T05:44:12;7.00;98.00
26575;DHT22;67165;50.256;10.978;2023-03-13T05:46:37;7.00;98.00
26575;DHT22;67165;50.256;10.978;2023-03-13T05:49:03;7.10;98.00
26575;DHT22;67165;50.256;10.978;2023-03-13T05:51:29;7.00;98.00
26575;DHT22;67165;50.256;10.978;2023-03-13T05:53:54;7.00;98.00
26575;DHT22;67165;50.256;10.978;2023-03-13T05:56:20;7.00;98.00
26575;DHT22;67165;50.256;10.978;2023-03-13T05:58:45;7.10;98.00
26575;DHT22;67165;50.256;10.978;2023-03-13T06:01:12;7.10;98.00
26575;DHT22;67165;50.256;10.978;2023-03-13T06:03:38;7.00;98.00
26575;DHT22;67165;50.256;10.978;2023-03-13T06:06:04;7.10;98.00
26575;DHT22;67165;50.256;10.978;2023-03-13T06:08:30;7.00;98.00
26575;DHT22;67165;50.256;10.978;2023-03-13T06:11:00;7.00;98.00
26575;DHT22;67165;50.256;10.978;2023-03-13T06:13:27;7.00;98.00
26575;DHT22;67165;50.256;10.978;2023-03-13T06:15:54;7.00;98.00
26575;DHT22;67165;50.256;10.978;2023-03-13T06:18:20;7.00;98.00
26575;DHT22;67165;50.256;10.978;2023-03-13T06:20:48;7.00;98.00
26575;DHT22;67165;50.256;10.978;2023-03-13T06:23:14;7.00;98.00
26575;DHT22;67165;50.256;10.978;2023-03-13T06:25:40;7.00;98.00
26575;DHT22;67165;50.256;10.978;2023-03-13T06:28:05;7.00;98.00
26575;DHT22;67165;50.256;10.978;2023-03-13T06:30:31;7.00;98.00
26575;DHT22;67165;50.256;10.978;2023-03-13T06:32:57;7.00;98.00
26575;DHT22;67165;50.256;10.978;2023-03-13T06:35:23;7.00;98.00
26575;DHT22;67165;50.256;10.978;2023-03-13T06:37:48;7.10;98.00
26575;DHT22;67165;50.256;10.978;2023-03-13T06:40:14;7.10;98.00
26575;DHT22;67165;50.256;10.978;2023-03-13T06:42:39;7.10;98.00
26575;DHT22;67165;50.256;10.978;2023-03-13T06:45:05;7.20;98.00
26575;DHT22;67165;50.256;10.978;2023-03-13T06:47:31;7.20;98.00
26575;DHT22;67165;50.256;10.978;2023-03-13T06:49:57;7.20;98.00
26575;DHT22;67165;50.256;10.978;2023-03-13T06:52:23;7.20;98.00
26575;DHT22;67165;50.256;10.978;2023-03-13T06:54:48;7.30;98.00
26575;DHT22;67165;50.256;10.978;2023-03-13T06:57:14;7.30;98.00
26575;DHT22;67165;50.256;10.978;2023-03-13T06:59:40;7.30;98.00
26575;DHT22;67165;50.256;10.978;2023-03-13T07:02:05;7.30;98.00
26575;DHT22;67165;50.256;10.978;2023-03-13T07:04:31;7.30;98.00
26575;DHT22;67165;50.256;10.978;2023-03-13T07:06:57;7.30;98.00
26575;DHT22;67165;50.256;10.978;2023-03-13T07:09:22;7.30;98.00
26575;DHT22;67165;50.256;10.978;2023-03-13T07:11:48;7.40;98.00
26575;DHT22;67165;50.256;10.978;2023-03-13T07:14:14;7.40;98.00
26575;DHT22;67165;50.256;10.978;2023-03-13T07:16:39;7.50;98.00
26575;DHT22;67165;50.256;10.978;2023-03-13T07:19:05;7.50;98.00
26575;DHT22;67165;50.256;10.978;2023-03-13T07:21:31;7.40;98.00
26575;DHT22;67165;50.256;10.978;2023-03-13T07:23:56;7.50;98.00
26575;DHT22;67165;50.256;10.978;2023-03-13T07:26:22;7.60;98.00
26575;DHT22;67165;50.256;10.978;2023-03-13T07:28:47;7.60;98.00
26575;DHT22;67165;50.256;10.978;2023-03-13T07:31:14;7.70;98.00
26575;DHT22;67165;50.256;10.978;2023-03-13T07:33:40;7.70;98.00
26575;DHT22;67165;50.256;10.978;2023-03-13T07:36:07;7.70;98.00
26575;DHT22;67165;50.256;10.978;2023-03-13T07:38:32;7.70;98.00
26575;DHT22;67165;50.256;10.978;2023-03-13T07:40:58;7.80;98.00
26575;DHT22;67165;50.256;10.978;2023-03-13T07:43:25;7.80;98.00
26575;DHT22;67165;50.256;10.978;2023-03-13T07:46:02;7.80;98.00
26575;DHT22;67165;50.256;10.978;2023-03-13T07:48:30;7.90;98.00
26575;DHT22;67165;50.256;10.978;2023-03-13T07:50:56;7.90;98.00
26575;DHT22;67165;50.256;10.978;2023-03-13T07:53:22;7.90;98.00
26575;DHT22;67165;50.256;10.978;2023-03-13T07:56:09;8.00;98.00
26575;DHT22;67165;50.256;10.978;2023-03-13T07:58:37;8.00;98.00
26575;DHT22;67165;50.256;10.978;2023-03-13T08:01:16;8.00;98.00
26575;DHT22;67165;50.256;10.978;2023-03-13T08:03:42;8.00;98.00
26575;DHT22;67165;50.256;10.978;2023-03-13T08:06:11;8.10;98.00
26575;DHT22;67165;50.256;10.978;2023-03-13T08:08:37;8.10;98.00
26575;DHT22;67165;50.256;10.978;2023-03-13T08:11:09;8.20;98.00
26575;DHT22;67165;50.256;10.978;2023-03-13T08:13:35;8.30;98.00
26575;DHT22;67165;50.256;10.978;2023-03-13T08:16:22;8.30;98.00
26575;DHT22;67165;50.256;10.978;2023-03-13T08:18:51;8.30;98.00
26575;DHT22;67165;50.256;10.978;2023-03-13T08:21:20;8.30;98.00
26575;DHT22;67165;50.256;10.978;2023-03-13T08:23:46;8.30;98.00
26575;DHT22;67165;50.256;10.978;2023-03-13T08:26:14;8.30;98.00
26575;DHT22;67165;50.256;10.978;2023-03-13T08:28:42;8.30;98.00
26575;DHT22;67165;50.256;10.978;2023-03-13T08:33:38;8.40;98.00
26575;DHT22;67165;50.256;10.978;2023-03-13T08:38:39;8.40;98.00
26575;DHT22;67165;50.256;10.978;2023-03-13T08:41:07;8.40;98.00
26575;DHT22;67165;50.256;10.978;2023-03-13T08:43:33;8.50;98.00
26575;DHT22;67165;50.256;10.978;2023-03-13T08:45:58;8.50;98.00
26575;DHT22;67165;50.256;10.978;2023-03-13T08:48:24;8.50;98.00
26575;DHT22;67165;50.256;10.978;2023-03-13T08:51:26;8.50;98.00
26575;DHT22;67165;50.256;10.978;2023-03-13T08:53:52;8.50;98.00
26575;DHT22;67165;50.256;10.978;2023-03-13T08:56:21;8.60;98.00
26575;DHT22;67165;50.256;10.978;2023-03-13T08:58:52;8.60;98.00
26575;DHT22;67165;50.256;10.978;2023-03-13T09:01:20;8.70;98.00
26575;DHT22;67165;50.256;10.978;2023-03-13T09:03:46;8.70;98.00
26575;DHT22;67165;50.256;10.978;2023-03-13T09:06:12;8.70;98.00
26575;DHT22;67165;50.256;10.978;2023-03-13T09:08:38;8.80;98.00
26575;DHT22;67165;50.256;10.978;2023-03-13T09:11:06;8.80;98.00
26575;DHT22;67165;50.256;10.978;2023-03-13T09:13:35;8.90;98.00
26575;DHT22;67165;50.256;10.978;2023-03-13T09:16:06;8.90;98.00
26575;DHT22;67165;50.256;10.978;2023-03-13T09:18:33;9.00;98.00
26575;DHT22;67165;50.256;10.978;2023-03-13T09:20:59;9.00;98.00
26575;DHT22;67165;50.256;10.978;2023-03-13T09:23:25;9.10;98.00
26575;DHT22;67165;50.256;10.978;2023-03-13T09:25:55;9.10;98.00
26575;DHT22;67165;50.256;10.978;2023-03-13T09:28:22;9.10;98.00
26575;DHT22;67165;50.256;10.978;2023-03-13T09:30:48;9.20;98.00
26575;DHT22;67165;50.256;10.978;2023-03-13T09:33:15;9.40;98.00
26575;DHT22;67165;50.256;10.978;2023-03-13T09:35:41;9.30;98.00
26575;DHT22;67165;50.256;10.978;2023-03-13T09:38:07;9.40;98.00
26575;DHT22;67165;50.256;10.978;2023-03-13T09:40:42;9.40;98.00
26575;DHT22;67165;50.256;10.978;2023-03-13T09:45:45;9.50;98.00
26575;DHT22;67165;50.256;10.978;2023-03-13T09:51:06;9.60;98.00
26575;DHT22;67165;50.256;10.978;2023-03-13T09:56:16;9.80;98.00
26575;DHT22;67165;50.256;10.978;2023-03-13T09:58:57;9.90;98.00
26575;DHT22;67165;50.256;10.978;2023-03-13T10:01:28;9.90;98.00
26575;DHT22;67165;50.256;10.978;2023-03-13T10:06:54;10.20;98.00
26575;DHT22;67165;50.256;10.978;2023-03-13T10:09:25;10.30;98.00
26575;DHT22;67165;50.256;10.978;2023-03-13T10:17:43;10.60;98.00
26575;DHT22;67165;50.256;10.978;2023-03-13T10:20:28;10.70;98.00
26575;DHT22;67165;50.256;10.978;2023-03-13T10:22:58;10.80;98.00
26575;DHT22;67165;50.256;10.978;2023-03-13T10:25:33;10.90;98.00
26575;DHT22;67165;50.256;10.978;2023-03-13T10:28:00;10.90;98.00
26575;DHT22;67165;50.256;10.978;2023-03-13T10:35:38;11.20;98.00
26575;DHT22;67165;50.256;10.978;2023-03-13T10:38:24;11.30;98.00
26575;DHT22;67165;50.256;10.978;2023-03-13T10:41:01;11.40;98.00
26575;DHT22;67165;50.256;10.978;2023-03-13T10:43:29;11.60;98.00
26575;DHT22;67165;50.256;10.978;2023-03-13T10:45:54;11.80;98.00
26575;DHT22;67165;50.256;10.978;2023-03-13T10:48:25;11.90;98.00
26575;DHT22;67165;50.256;10.978;2023-03-13T10:50:53;12.10;98.00
26575;DHT22;67165;50.256;10.978;2023-03-13T10:55:57;12.40;98.00
26575;DHT22;67165;50.256;10.978;2023-03-13T10:58:40;12.40;98.00
26575;DHT22;67165;50.256;10.978;2023-03-13T11:01:28;12.60;98.00
26575;DHT22;67165;50.256;10.978;2023-03-13T11:03:58;12.60;98.00
26575;DHT22;67165;50.256;10.978;2023-03-13T11:06:29;12.60;98.00
26575;DHT22;67165;50.256;10.978;2023-03-13T11:09:11;12.60;98.00
26575;DHT22;67165;50.256;10.978;2023-03-13T11:11:49;12.50;98.00
26575;DHT22;67165;50.256;10.978;2023-03-13T11:14:20;12.60;98.00
26575;DHT22;67165;50.256;10.978;2023-03-13T11:19:48;12.80;98.00
26575;DHT22;67165;50.256;10.978;2023-03-13T11:22:26;13.00;98.00
26575;DHT22;67165;50.256;10.978;2023-03-13T11:28:08;13.10;98.00
26575;DHT22;67165;50.256;10.978;2023-03-13T11:33:39;13.30;98.00
26575;DHT22;67165;50.256;10.978;2023-03-13T11:36:13;13.30;98.00
26575;DHT22;67165;50.256;10.978;2023-03-13T11:38:43;13.40;98.00
26575;DHT22;67165;50.256;10.978;2023-03-13T11:44:27;13.40;98.00
26575;DHT22;67165;50.256;10.978;2023-03-13T12:01:17;13.90;98.00
26575;DHT22;67165;50.256;10.978;2023-03-13T12:06:37;13.70;98.00
26575;DHT22;67165;50.256;10.978;2023-03-13T12:09:10;13.70;98.00
26575;DHT22;67165;50.256;10.978;2023-03-13T12:11:39;13.60;98.00
26575;DHT22;67165;50.256;10.978;2023-03-13T12:14:14;13.50;98.00
26575;DHT22;67165;50.256;10.978;2023-03-13T12:16:49;13.40;98.00
26575;DHT22;67165;50.256;10.978;2023-03-13T12:19:31;13.40;98.00
26575;DHT22;67165;50.256;10.978;2023-03-13T12:22:09;13.40;98.00
26575;DHT22;67165;50.256;10.978;2023-03-13T12:24:48;13.40;98.00
26575;DHT22;67165;50.256;10.978;2023-03-13T12:27:32;13.20;98.00
26575;DHT22;67165;50.256;10.978;2023-03-13T12:30:05;13.10;98.00
26575;DHT22;67165;50.256;10.978;2023-03-13T12:35:27;13.10;98.00
26575;DHT22;67165;50.256;10.978;2023-03-13T12:38:24;13.10;98.00
26575;DHT22;67165;50.256;10.978;2023-03-13T12:43:43;13.10;98.00
26575;DHT22;67165;50.256;10.978;2023-03-13T13:00:00;13.90;98.00
26575;DHT22;67165;50.256;10.978;2023-03-13T13:02:30;14.10;98.00
26575;DHT22;67165;50.256;10.978;2023-03-13T13:04:59;14.20;98.00
26575;DHT22;67165;50.256;10.978;2023-03-13T13:07:34;14.30;98.00
26575;DHT22;67165;50.256;10.978;2023-03-13T13:12:38;14.50;98.00
26575;DHT22;67165;50.256;10.978;2023-03-13T13:15:26;14.60;98.00
26575;DHT22;67165;50.256;10.978;2023-03-13T13:20:36;14.90;98.00
26575;DHT22;67165;50.256;10.978;2023-03-13T13:23:25;15.00;98.00
26575;DHT22;67165;50.256;10.978;2023-03-13T13:25:54;15.10;98.00
26575;DHT22;67165;50.256;10.978;2023-03-13T13:28:28;15.20;98.00
26575;DHT22;67165;50.256;10.978;2023-03-13T13:30:56;15.20;98.00
26575;DHT22;67165;50.256;10.978;2023-03-13T13:38:46;15.30;98.00
26575;DHT22;67165;50.256;10.978;2023-03-13T13:48:38;15.50;98.00
26575;DHT22;67165;50.256;10.978;2023-03-13T13:53:58;15.50;98.00
26575;DHT22;67165;50.256;10.978;2023-03-13T13:56:45;15.50;98.00
26575;DHT22;67165;50.256;10.978;2023-03-13T14:01:48;15.60;98.00
26575;DHT22;67165;50.256;10.978;2023-03-13T14:07:03;15.50;98.00
26575;DHT22;67165;50.256;10.978;2023-03-13T14:15:15;15.30;98.00
26575;DHT22;67165;50.256;10.978;2023-03-13T14:17:56;15.30;98.00
26575;DHT22;67165;50.256;10.978;2023-03-13T14:20:30;15.30;98.00
26575;DHT22;67165;50.256;10.978;2023-03-13T14:22:59;15.30;98.00
26575;DHT22;67165;50.256;10.978;2023-03-13T14:25:27;15.40;98.00
26575;DHT22;67165;50.256;10.978;2023-03-13T14:27:54;15.40;98.00
26575;DHT22;67165;50.256;10.978;2023-03-13T14:30:21;15.40;98.00
26575;DHT22;67165;50.256;10.978;2023-03-13T14:32:47;15.50;98.00
26575;DHT22;67165;50.256;10.978;2023-03-13T14:35:16;15.50;98.00
26575;DHT22;67165;50.256;10.978;2023-03-13T14:37:45;15.60;98.00
26575;DHT22;67165;50.256;10.978;2023-03-13T14:42:54;15.60;98.00
26575;DHT22;67165;50.256;10.978;2023-03-13T14:45:34;15.60;98.00
26575;DHT22;67165;50.256;10.978;2023-03-13T14:51:07;15.70;98.00
26575;DHT22;67165;50.256;10.978;2023-03-13T14:53:33;15.70;98.00
26575;DHT22;67165;50.256;10.978;2023-03-13T14:56:14;15.80;98.00
26575;DHT22;67165;50.256;10.978;2023-03-13T14:58:44;15.90;98.00
26575;DHT22;67165;50.256;10.978;2023-03-13T15:01:12;16.00;98.00
26575;DHT22;67165;50.256;10.978;2023-03-13T15:03:43;16.10;98.00
26575;DHT22;67165;50.256;10.978;2023-03-13T15:08:41;16.20;98.00
26575;DHT22;67165;50.256;10.978;2023-03-13T15:11:29;16.10;98.00
26575;DHT22;67165;50.256;10.978;2023-03-13T15:13:57;16.10;98.00
26575;DHT22;67165;50.256;10.978;2023-03-13T15:16:24;16.10;98.00
26575;DHT22;67165;50.256;10.978;2023-03-13T15:18:51;16.10;98.00
26575;DHT22;67165;50.256;10.978;2023-03-13T15:21:27;16.00;98.00
26575;DHT22;67165;50.256;10.978;2023-03-13T15:24:12;15.90;98.00
26575;DHT22;67165;50.256;10.978;2023-03-13T15:26:38;15.80;98.00
26575;DHT22;67165;50.256;10.978;2023-03-13T15:29:03;15.80;98.00
26575;DHT22;67165;50.256;10.978;2023-03-13T15:31:29;15.90;98.00
26575;DHT22;67165;50.256;10.978;2023-03-13T15:33:57;15.80;98.00
26575;DHT22;67165;50.256;10.978;2023-03-13T15:36:24;15.80;98.00
26575;DHT22;67165;50.256;10.978;2023-03-13T15:38:50;15.80;98.00
26575;DHT22;67165;50.256;10.978;2023-03-13T15:41:16;15.70;98.00
26575;DHT22;67165;50.256;10.978;2023-03-13T15:43:42;15.70;98.00
26575;DHT22;67165;50.256;10.978;2023-03-13T15:46:13;15.60;98.00
26575;DHT22;67165;50.256;10.978;2023-03-13T15:48:39;15.50;98.00
26575;DHT22;67165;50.256;10.978;2023-03-13T15:51:11;15.50;98.00
26575;DHT22;67165;50.256;10.978;2023-03-13T15:53:37;15.50;98.00
26575;DHT22;67165;50.256;10.978;2023-03-13T15:56:17;15.50;98.00
26575;DHT22;67165;50.256;10.978;2023-03-13T15:58:45;15.50;98.00
26575;DHT22;67165;50.256;10.978;2023-03-13T16:01:13;15.40;98.00
26575;DHT22;67165;50.256;10.978;2023-03-13T16:03:39;15.30;98.00
26575;DHT22;67165;50.256;10.978;2023-03-13T16:06:23;15.30;98.00
26575;DHT22;67165;50.256;10.978;2023-03-13T16:08:58;15.20;98.00
26575;DHT22;67165;50.256;10.978;2023-03-13T16:11:25;15.20;98.00
26575;DHT22;67165;50.256;10.978;2023-03-13T16:13:51;15.20;98.00
26575;DHT22;67165;50.256;10.978;2023-03-13T16:16:28;15.20;98.00
26575;DHT22;67165;50.256;10.978;2023-03-13T16:18:55;15.20;98.00
26575;DHT22;67165;50.256;10.978;2023-03-13T16:21:23;15.20;98.00
26575;DHT22;67165;50.256;10.978;2023-03-13T16:23:49;15.20;98.00
26575;DHT22;67165;50.256;10.978;2023-03-13T16:26:17;15.20;98.00
26575;DHT22;67165;50.256;10.978;2023-03-13T16:28:44;15.10;98.00
26575;DHT22;67165;50.256;10.978;2023-03-13T16:31:16;15.00;98.00
26575;DHT22;67165;50.256;10.978;2023-03-13T16:33:43;14.90;98.00
26575;DHT22;67165;50.256;10.978;2023-03-13T16:36:20;14.80;98.00
26575;DHT22;67165;50.256;10.978;2023-03-13T16:38:46;14.70;98.00
26575;DHT22;67165;50.256;10.978;2023-03-13T16:41:17;14.50;98.00
26575;DHT22;67165;50.256;10.978;2023-03-13T16:43:43;14.50;98.00
26575;DHT22;67165;50.256;10.978;2023-03-13T16:46:17;14.60;98.00
26575;DHT22;67165;50.256;10.978;2023-03-13T16:48:43;14.50;98.00
26575;DHT22;67165;50.256;10.978;2023-03-13T16:51:24;14.40;98.00
26575;DHT22;67165;50.256;10.978;2023-03-13T16:53:52;14.30;98.00
26575;DHT22;67165;50.256;10.978;2023-03-13T16:58:46;14.20;98.00
26575;DHT22;67165;50.256;10.978;2023-03-13T17:01:12;14.20;98.00
26575;DHT22;67165;50.256;10.978;2023-03-13T17:03:37;14.20;98.00
26575;DHT22;67165;50.256;10.978;2023-03-13T17:06:03;14.10;98.00
26575;DHT22;67165;50.256;10.978;2023-03-13T17:08:29;14.20;98.00
26575;DHT22;67165;50.256;10.978;2023-03-13T17:10:54;14.10;98.00
26575;DHT22;67165;50.256;10.978;2023-03-13T17:13:20;14.10;98.00
26575;DHT22;67165;50.256;10.978;2023-03-13T17:15:48;14.10;98.00
26575;DHT22;67165;50.256;10.978;2023-03-13T17:18:14;14.00;98.00
26575;DHT22;67165;50.256;10.978;2023-03-13T17:20:40;14.00;98.00
26575;DHT22;67165;50.256;10.978;2023-03-13T17:23:05;14.10;98.00
26575;DHT22;67165;50.256;10.978;2023-03-13T17:25:31;14.10;98.00
26575;DHT22;67165;50.256;10.978;2023-03-13T17:27:57;14.00;98.00
26575;DHT22;67165;50.256;10.978;2023-03-13T17:30:26;13.90;98.00
26575;DHT22;67165;50.256;10.978;2023-03-13T17:32:52;13.90;98.00
26575;DHT22;67165;50.256;10.978;2023-03-13T17:35:19;14.00;98.00
26575;DHT22;67165;50.256;10.978;2023-03-13T17:37:46;13.90;98.00
26575;DHT22;67165;50.256;10.978;2023-03-13T17:40:20;13.30;98.00
26575;DHT22;67165;50.256;10.978;2023-03-13T17:42:47;12.40;98.00
26575;DHT22;67165;50.256;10.978;2023-03-13T17:45:13;11.80;98.00
26575;DHT22;67165;50.256;10.978;2023-03-13T17:47:39;11.40;98.00
26575;DHT22;67165;50.256;10.978;2023-03-13T17:50:22;11.10;98.00